createdAt,value
2019-04-21T00:05:00.914Z,31.27
2019-04-21T00:10:16.844Z,35.00
2019-04-21T00:15:12.427Z,39.47
2019-04-21T00:20:26.112Z,38.23
2019-04-21T00:25:33.966Z,27.98
2019-04-21T00:30:54.556Z,25.50
2019-04-21T00:35:48.692Z,29.50
2019-04-21T00:41:05.621Z,28.87
2019-04-21T00:46:04.728Z,31.10
2019-04-21T00:51:33.330Z,28.92
2019-04-21T00:56:28.838Z,28.57
2019-04-21T01:01:38.036Z,32.50
2019-04-21T01:06:48.296Z,32.25
2019-04-21T01:11:51.859Z,30.27
2019-04-21T01:16:58.195Z,31.43
2019-04-21T01:22:14.775Z,29.43
2019-04-21T01:27:33.680Z,33.10
2019-04-21T01:32:55.816Z,35.57
2019-04-21T01:38:00.196Z,28.92
2019-04-21T01:43:04.801Z,29.83
2019-04-21T01:48:15.850Z,28.53
2019-04-21T01:53:38.444Z,28.83
2019-04-21T01:58:36.576Z,26.87
2019-04-21T02:09:02.163Z,27.23
2019-04-21T02:14:12.932Z,31.70
2019-04-21T02:19:11.424Z,34.60
2019-04-21T02:24:31.256Z,33.27
2019-04-21T02:29:37.630Z,31.53
2019-04-21T02:34:50.694Z,29.63
2019-04-21T02:39:56.770Z,31.63
2019-04-21T02:44:59.929Z,34.57
2019-04-21T03:00:30.336Z,34.00
2019-04-21T03:16:22.286Z,33.57
2019-04-21T03:21:29.097Z,34.70
2019-04-21T03:47:06.979Z,31.60
2019-04-21T03:57:38.759Z,31.10
2019-04-21T04:02:58.754Z,31.37
2019-04-21T04:07:59.263Z,40.77
2019-04-21T04:13:04.961Z,39.33
2019-04-21T04:18:16.687Z,38.60
2019-04-21T04:34:22.840Z,39.73
2019-04-21T04:39:42.862Z,41.77
2019-04-21T04:54:55.476Z,29.70
2019-04-21T05:00:14.514Z,28.73
2019-04-21T05:05:14.072Z,31.40
2019-04-21T05:10:19.639Z,29.27
2019-04-21T05:15:19.393Z,31.97
2019-04-21T05:20:41.602Z,36.03
2019-04-21T05:25:23.444Z,39.70
2019-04-21T05:30:50.088Z,34.30
2019-04-21T05:36:04.089Z,29.53
2019-04-21T05:41:05.204Z,32.23
2019-04-21T05:46:21.744Z,41.27
2019-04-21T05:51:25.849Z,34.30
2019-04-21T05:56:36.648Z,29.87
2019-04-21T06:02:02.567Z,29.50
2019-04-21T06:07:02.102Z,30.83
2019-04-21T06:12:02.906Z,30.50
2019-04-21T06:17:10.908Z,26.17
2019-04-21T06:22:16.439Z,34.53
2019-04-21T06:27:29.877Z,37.77
2019-04-21T06:38:01.431Z,30.43
2019-04-21T06:43:20.871Z,31.27
2019-04-21T06:48:18.497Z,34.03
2019-04-21T06:53:36.035Z,33.93
2019-04-21T06:58:27.823Z,38.33
2019-04-21T07:03:44.002Z,30.80
2019-04-21T07:08:52.931Z,30.17
2019-04-21T07:14:01.733Z,31.77
2019-04-21T07:19:05.920Z,31.80
2019-04-21T07:24:10.365Z,33.60
2019-04-21T07:29:14.093Z,31.73
2019-04-21T07:34:27.446Z,34.90
2019-04-21T07:39:30.088Z,37.70
2019-04-21T07:44:32.631Z,37.73
2019-04-21T07:50:00.909Z,37.40
2019-04-21T07:55:21.590Z,34.57
2019-04-21T08:05:39.228Z,33.80
2019-04-21T08:10:28.622Z,38.83
2019-04-21T08:15:40.088Z,32.35
2019-04-21T08:20:43.697Z,35.40
2019-04-21T08:26:01.132Z,34.30
2019-04-21T08:31:09.886Z,32.60
2019-04-21T08:36:32.533Z,24.10
2019-04-21T08:41:46.939Z,25.15
2019-04-21T08:46:52.597Z,22.42
2019-04-21T08:52:21.694Z,22.20
2019-04-21T08:57:47.607Z,23.60
2019-04-21T09:03:11.181Z,22.20
2019-04-21T09:08:10.737Z,22.90
2019-04-21T09:13:17.213Z,19.85
2019-04-21T09:18:18.886Z,17.85
2019-04-21T09:23:32.769Z,17.10
2019-04-21T09:28:36.338Z,18.85
2019-04-21T09:33:35.259Z,17.17
2019-04-21T09:38:39.862Z,17.30
2019-04-21T09:43:48.388Z,17.30
2019-04-21T09:49:00.358Z,20.17
2019-04-21T09:54:05.798Z,18.40
2019-04-21T09:59:13.253Z,19.77
2019-04-21T10:04:14.277Z,21.33
2019-04-21T10:09:21.601Z,19.80
2019-04-21T10:14:29.160Z,20.08
2019-04-21T10:19:34.424Z,18.70
2019-04-21T10:24:40.486Z,22.77
2019-04-21T10:29:48.593Z,22.95
2019-04-21T10:34:55.140Z,18.82
2019-04-21T15:30:44.719Z,15.48
2019-04-21T15:35:51.201Z,14.95
2019-04-21T15:41:00.538Z,15.30
2019-04-21T15:46:04.666Z,14.68
2019-04-21T15:51:11.043Z,14.73
2019-04-21T15:56:31.046Z,14.93
2019-04-21T16:02:04.495Z,17.48
2019-04-21T16:07:09.946Z,14.33
2019-04-21T16:12:17.819Z,13.90
2019-04-21T16:17:23.539Z,15.13
2019-04-21T16:22:30.634Z,16.45
2019-04-21T16:27:37.222Z,14.98
2019-04-21T16:32:44.011Z,14.58
2019-04-21T16:37:49.762Z,14.10
2019-04-21T16:42:58.446Z,14.10
2019-04-21T16:48:03.565Z,15.38
2019-04-21T16:53:28.244Z,13.83
2019-04-21T16:58:38.791Z,14.53
2019-04-21T17:03:44.385Z,13.43
2019-04-21T17:08:52.506Z,14.40
2019-04-21T17:14:00.631Z,13.50
2019-04-21T17:19:15.915Z,14.15
2019-04-21T17:24:14.446Z,15.27
2019-04-21T17:29:20.891Z,14.78
2019-04-21T17:34:29.771Z,14.60
2019-04-21T17:39:34.953Z,16.95
2019-04-21T17:44:41.271Z,14.87
2019-04-21T17:49:49.061Z,14.87
2019-04-21T17:55:11.449Z,15.00
2019-04-21T18:00:53.518Z,15.05
2019-04-21T18:05:37.497Z,13.72
2019-04-21T18:10:42.329Z,17.35
2019-04-21T18:15:47.090Z,15.53
2019-04-21T18:20:46.112Z,16.80
2019-04-21T18:26:01.387Z,17.03
2019-04-21T18:31:06.934Z,17.23
2019-04-21T18:36:49.830Z,17.55
2019-04-21T18:42:18.179Z,17.17
2019-04-21T18:47:31.780Z,16.70
2019-04-21T18:52:45.238Z,17.10
2019-04-21T18:57:42.367Z,16.75
2019-04-21T19:02:46.537Z,17.27
2019-04-21T19:08:10.284Z,16.75
2019-04-21T19:23:43.160Z,15.68
2019-04-21T19:28:47.568Z,16.87
2019-04-21T19:33:36.162Z,18.75
2019-04-21T19:38:45.346Z,19.75
2019-04-21T19:43:59.613Z,21.60
2019-04-21T19:49:13.450Z,17.40
2019-04-21T19:54:03.774Z,16.70
2019-04-21T19:59:03.353Z,17.30
2019-04-21T20:04:08.612Z,17.17
2019-04-21T20:09:32.494Z,16.15
2019-04-21T20:19:27.873Z,17.77
2019-04-21T20:24:35.960Z,17.02
2019-04-21T20:29:57.891Z,16.57
2019-04-21T20:35:09.431Z,18.05
2019-04-21T20:40:00.640Z,17.85
2019-04-21T20:45:28.854Z,17.75
2019-04-21T20:50:25.198Z,18.25
2019-04-21T20:55:22.383Z,19.50
2019-04-21T21:00:54.740Z,20.35
2019-04-21T21:05:42.478Z,19.02
2019-04-21T21:10:53.254Z,18.65
2019-04-21T21:16:10.540Z,18.62
2019-04-21T21:21:06.659Z,19.00
2019-04-21T21:26:21.796Z,19.12
2019-04-21T21:31:26.566Z,19.92
2019-04-21T21:36:33.960Z,21.07
2019-04-21T21:41:26.547Z,20.80
2019-04-21T21:46:43.016Z,21.30
2019-04-21T21:51:45.063Z,22.17
2019-04-21T21:56:40.775Z,22.45
2019-04-21T22:01:50.671Z,21.95
2019-04-21T22:07:02.538Z,23.12
2019-04-21T22:12:06.260Z,21.50
2019-04-21T22:17:24.760Z,22.67
2019-04-21T22:22:28.588Z,22.65
2019-04-21T22:27:23.221Z,21.52
2019-04-21T22:32:30.907Z,20.27
2019-04-21T22:37:49.952Z,20.23
2019-04-21T22:42:54.569Z,19.75
2019-04-21T22:47:49.492Z,19.80
2019-04-21T22:52:59.459Z,20.27
2019-04-21T22:58:03.443Z,21.68
2019-04-21T23:03:13.544Z,21.23
2019-04-21T23:08:15.273Z,22.37
2019-04-21T23:13:23.599Z,24.70
2019-04-21T23:18:42.301Z,30.10
2019-04-21T23:23:52.455Z,24.60
2019-04-21T23:29:01.932Z,18.12
2019-04-21T23:33:48.411Z,20.55
2019-04-21T23:38:56.745Z,23.07
2019-04-21T23:44:05.548Z,21.05
2019-04-21T23:49:21.470Z,21.82
2019-04-21T23:54:15.657Z,20.80
2019-04-21T23:59:20.733Z,20.72
